sensor_id;sensor_type;location;lat;lon;timestamp;pressure;altitude;pressure_sealevel;temperature;humidity
28510;BME280;15723;55.684;37.928;2022-10-31T00:01:38;98354.94;;;1.99;58.01
28510;BME280;15723;55.684;37.928;2022-10-31T00:04:04;98351.31;;;2.00;58.00
28510;BME280;15723;55.684;37.928;2022-10-31T00:06:31;98347.94;;;1.96;57.63
28510;BME280;15723;55.684;37.928;2022-10-31T00:08:58;98350.13;;;2.21;57.25
28510;BME280;15723;55.684;37.928;2022-10-31T00:11:25;98345.81;;;2.18;58.30
28510;BME280;15723;55.684;37.928;2022-10-31T00:13:51;98349.75;;;1.96;57.98
28510;BME280;15723;55.684;37.928;2022-10-31T00:16:18;98341.09;;;2.39;57.67
28510;BME280;15723;55.684;37.928;2022-10-31T00:18:47;98334.84;;;2.07;57.97
28510;BME280;15723;55.684;37.928;2022-10-31T00:21:13;98344.06;;;2.02;58.23
28510;BME280;15723;55.684;37.928;2022-10-31T00:23:40;98332.94;;;2.09;58.59
28510;BME280;15723;55.684;37.928;2022-10-31T00:26:06;98319.81;;;2.20;58.38
28510;BME280;15723;55.684;37.928;2022-10-31T00:28:32;98324.47;;;2.17;58.87
28510;BME280;15723;55.684;37.928;2022-10-31T00:31:02;98326.09;;;1.88;58.66
28510;BME280;15723;55.684;37.928;2022-10-31T00:33:29;98329.94;;;2.31;57.61
28510;BME280;15723;55.684;37.928;2022-10-31T00:35:55;98331.84;;;1.80;58.96
28510;BME280;15723;55.684;37.928;2022-10-31T00:38:21;98323.13;;;2.26;58.39
28510;BME280;15723;55.684;37.928;2022-10-31T00:40:47;98328.69;;;1.90;59.17
28510;BME280;15723;55.684;37.928;2022-10-31T00:43:13;98324.59;;;1.82;59.30
28510;BME280;15723;55.684;37.928;2022-10-31T00:45:40;98310.41;;;1.98;58.21
28510;BME280;15723;55.684;37.928;2022-10-31T00:48:06;98322.22;;;1.61;59.04
28510;BME280;15723;55.684;37.928;2022-10-31T00:50:32;98324.91;;;1.94;58.38
28510;BME280;15723;55.684;37.928;2022-10-31T00:52:58;98300.94;;;1.75;58.42
28510;BME280;15723;55.684;37.928;2022-10-31T00:55:25;98323.59;;;1.52;59.13
28510;BME280;15723;55.684;37.928;2022-10-31T00:57:51;98318.53;;;1.63;59.17
28510;BME280;15723;55.684;37.928;2022-10-31T01:00:17;98315.19;;;1.75;58.33
28510;BME280;15723;55.684;37.928;2022-10-31T01:02:43;98324.38;;;2.03;57.57
28510;BME280;15723;55.684;37.928;2022-10-31T01:05:09;98320.66;;;1.90;57.95
28510;BME280;15723;55.684;37.928;2022-10-31T01:07:37;98321.09;;;1.65;59.35
28510;BME280;15723;55.684;37.928;2022-10-31T01:10:04;98318.78;;;1.92;58.74
28510;BME280;15723;55.684;37.928;2022-10-31T01:12:30;98315.50;;;2.02;57.89
28510;BME280;15723;55.684;37.928;2022-10-31T01:15:00;98309.53;;;1.97;57.69
28510;BME280;15723;55.684;37.928;2022-10-31T01:17:27;98317.22;;;1.87;58.29
28510;BME280;15723;55.684;37.928;2022-10-31T01:19:52;98315.09;;;1.77;58.28
28510;BME280;15723;55.684;37.928;2022-10-31T01:22:18;98315.66;;;1.99;58.13
28510;BME280;15723;55.684;37.928;2022-10-31T01:24:44;98316.63;;;1.48;59.75
28510;BME280;15723;55.684;37.928;2022-10-31T01:27:11;98321.69;;;1.87;58.61
28510;BME280;15723;55.684;37.928;2022-10-31T01:29:36;98324.03;;;1.60;59.18
28510;BME280;15723;55.684;37.928;2022-10-31T01:32:03;98310.00;;;1.72;59.66
28510;BME280;15723;55.684;37.928;2022-10-31T01:34:29;98322.59;;;1.70;60.01
28510;BME280;15723;55.684;37.928;2022-10-31T01:36:55;98319.38;;;1.64;59.63
28510;BME280;15723;55.684;37.928;2022-10-31T01:39:21;98325.09;;;1.73;60.41
28510;BME280;15723;55.684;37.928;2022-10-31T01:41:48;98321.09;;;1.98;60.28
28510;BME280;15723;55.684;37.928;2022-10-31T01:46:43;98335.38;;;1.31;62.80
28510;BME280;15723;55.684;37.928;2022-10-31T01:49:33;98340.41;;;1.37;63.84
28510;BME280;15723;55.684;37.928;2022-10-31T01:51:58;98327.59;;;1.26;64.69
28510;BME280;15723;55.684;37.928;2022-10-31T01:54:26;98339.38;;;0.87;66.41
28510;BME280;15723;55.684;37.928;2022-10-31T01:56:55;98340.47;;;1.01;67.03
28510;BME280;15723;55.684;37.928;2022-10-31T01:59:22;98336.09;;;1.00;67.29
28510;BME280;15723;55.684;37.928;2022-10-31T02:01:52;98340.59;;;1.16;67.27
28510;BME280;15723;55.684;37.928;2022-10-31T02:04:18;98349.06;;;0.90;68.12
28510;BME280;15723;55.684;37.928;2022-10-31T02:09:12;98346.41;;;1.24;68.32
28510;BME280;15723;55.684;37.928;2022-10-31T02:11:39;98350.31;;;0.83;69.73
28510;BME280;15723;55.684;37.928;2022-10-31T02:14:11;98352.50;;;0.75;70.15
28510;BME280;15723;55.684;37.928;2022-10-31T02:16:37;98350.16;;;0.86;70.27
28510;BME280;15723;55.684;37.928;2022-10-31T02:19:04;98359.75;;;0.54;70.90
28510;BME280;15723;55.684;37.928;2022-10-31T02:21:44;98345.13;;;0.80;70.50
28510;BME280;15723;55.684;37.928;2022-10-31T02:34:57;98349.06;;;1.24;71.40
28510;BME280;15723;55.684;37.928;2022-10-31T02:43:29;98347.09;;;0.93;73.17
28510;BME280;15723;55.684;37.928;2022-10-31T02:46:14;98352.78;;;0.69;74.06
28510;BME280;15723;55.684;37.928;2022-10-31T02:48:46;98342.91;;;1.05;73.62
28510;BME280;15723;55.684;37.928;2022-10-31T02:51:14;98352.34;;;0.78;74.54
28510;BME280;15723;55.684;37.928;2022-10-31T02:53:41;98348.13;;;1.25;73.38
28510;BME280;15723;55.684;37.928;2022-10-31T02:58:36;98352.75;;;0.87;75.70
28510;BME280;15723;55.684;37.928;2022-10-31T03:08:54;98348.25;;;0.88;75.65
28510;BME280;15723;55.684;37.928;2022-10-31T03:11:25;98351.09;;;0.49;77.62
28510;BME280;15723;55.684;37.928;2022-10-31T03:19:04;98346.97;;;1.14;76.20
28510;BME280;15723;55.684;37.928;2022-10-31T03:21:35;98352.81;;;0.50;77.55
28510;BME280;15723;55.684;37.928;2022-10-31T03:24:02;98358.31;;;0.47;78.03
28510;BME280;15723;55.684;37.928;2022-10-31T03:26:32;98352.44;;;0.57;78.40
28510;BME280;15723;55.684;37.928;2022-10-31T03:29:01;98351.03;;;0.68;78.14
28510;BME280;15723;55.684;37.928;2022-10-31T03:31:29;98351.94;;;0.49;78.15
28510;BME280;15723;55.684;37.928;2022-10-31T03:33:58;98356.38;;;0.68;78.27
28510;BME280;15723;55.684;37.928;2022-10-31T03:36:32;98348.19;;;0.89;77.06
28510;BME280;15723;55.684;37.928;2022-10-31T03:39:00;98348.53;;;0.65;77.16
28510;BME280;15723;55.684;37.928;2022-10-31T03:41:28;98352.09;;;0.82;77.22
28510;BME280;15723;55.684;37.928;2022-10-31T03:44:01;98360.69;;;0.89;75.62
28510;BME280;15723;55.684;37.928;2022-10-31T03:46:29;98352.81;;;0.86;75.56
28510;BME280;15723;55.684;37.928;2022-10-31T03:48:57;98358.63;;;0.94;75.00
28510;BME280;15723;55.684;37.928;2022-10-31T03:51:26;98361.22;;;0.59;75.42
28510;BME280;15723;55.684;37.928;2022-10-31T03:54:03;98360.03;;;0.84;75.05
28510;BME280;15723;55.684;37.928;2022-10-31T03:56:33;98365.56;;;0.98;74.29
28510;BME280;15723;55.684;37.928;2022-10-31T03:59:21;98364.78;;;0.60;74.59
28510;BME280;15723;55.684;37.928;2022-10-31T04:01:50;98365.63;;;0.79;72.97
28510;BME280;15723;55.684;37.928;2022-10-31T04:04:18;98366.41;;;0.81;73.72
28510;BME280;15723;55.684;37.928;2022-10-31T04:06:48;98370.38;;;1.26;72.85
28510;BME280;15723;55.684;37.928;2022-10-31T04:09:16;98356.69;;;1.32;72.43
28510;BME280;15723;55.684;37.928;2022-10-31T04:11:44;98364.41;;;1.21;72.86
28510;BME280;15723;55.684;37.928;2022-10-31T04:14:49;98363.81;;;1.66;71.73
28510;BME280;15723;55.684;37.928;2022-10-31T04:17:17;98373.13;;;1.24;72.88
28510;BME280;15723;55.684;37.928;2022-10-31T04:19:44;98373.44;;;1.18;73.28
28510;BME280;15723;55.684;37.928;2022-10-31T04:22:12;98384.25;;;0.81;74.79
28510;BME280;15723;55.684;37.928;2022-10-31T04:24:38;98373.41;;;0.84;73.67
28510;BME280;15723;55.684;37.928;2022-10-31T04:27:05;98390.78;;;0.92;74.41
28510;BME280;15723;55.684;37.928;2022-10-31T04:29:32;98371.41;;;1.23;74.01
28510;BME280;15723;55.684;37.928;2022-10-31T04:31:58;98374.44;;;0.62;74.95
28510;BME280;15723;55.684;37.928;2022-10-31T04:34:25;98391.22;;;0.83;74.54
28510;BME280;15723;55.684;37.928;2022-10-31T04:36:51;98383.78;;;0.90;74.57
28510;BME280;15723;55.684;37.928;2022-10-31T04:39:17;98392.94;;;1.20;73.83
28510;BME280;15723;55.684;37.928;2022-10-31T04:41:49;98391.88;;;0.88;74.41
28510;BME280;15723;55.684;37.928;2022-10-31T04:44:18;98398.47;;;0.99;73.92
28510;BME280;15723;55.684;37.928;2022-10-31T04:46:48;98411.91;;;0.97;74.57
28510;BME280;15723;55.684;37.928;2022-10-31T04:49:14;98410.16;;;1.15;74.48
28510;BME280;15723;55.684;37.928;2022-10-31T04:51:40;98408.59;;;0.92;74.06
28510;BME280;15723;55.684;37.928;2022-10-31T04:54:08;98405.47;;;1.01;73.18
28510;BME280;15723;55.684;37.928;2022-10-31T04:56:52;98404.97;;;1.29;73.14
28510;BME280;15723;55.684;37.928;2022-10-31T04:59:21;98405.69;;;1.15;73.37
28510;BME280;15723;55.684;37.928;2022-10-31T05:01:52;98410.47;;;1.43;73.17
28510;BME280;15723;55.684;37.928;2022-10-31T05:04:39;98411.19;;;1.30;72.77
28510;BME280;15723;55.684;37.928;2022-10-31T05:07:14;98418.56;;;1.42;73.19
28510;BME280;15723;55.684;37.928;2022-10-31T05:09:42;98419.06;;;1.50;73.00
28510;BME280;15723;55.684;37.928;2022-10-31T05:12:08;98425.16;;;1.17;73.94
28510;BME280;15723;55.684;37.928;2022-10-31T05:14:54;98424.41;;;0.97;74.77
28510;BME280;15723;55.684;37.928;2022-10-31T05:17:38;98425.84;;;1.04;74.82
28510;BME280;15723;55.684;37.928;2022-10-31T05:20:07;98435.94;;;1.33;74.38
28510;BME280;15723;55.684;37.928;2022-10-31T05:22:52;98450.66;;;1.42;73.35
28510;BME280;15723;55.684;37.928;2022-10-31T05:25:20;98446.31;;;1.22;74.26
28510;BME280;15723;55.684;37.928;2022-10-31T05:27:47;98448.59;;;0.93;74.08
28510;BME280;15723;55.684;37.928;2022-10-31T05:30:15;98453.16;;;0.91;74.20
28510;BME280;15723;55.684;37.928;2022-10-31T05:32:45;98456.25;;;1.01;74.46
28510;BME280;15723;55.684;37.928;2022-10-31T05:35:32;98460.31;;;1.44;73.60
28510;BME280;15723;55.684;37.928;2022-10-31T05:38:22;98472.72;;;0.92;74.18
28510;BME280;15723;55.684;37.928;2022-10-31T05:40:49;98473.84;;;1.24;73.21
28510;BME280;15723;55.684;37.928;2022-10-31T05:43:15;98477.84;;;1.33;73.20
28510;BME280;15723;55.684;37.928;2022-10-31T05:45:41;98481.66;;;1.63;73.38
28510;BME280;15723;55.684;37.928;2022-10-31T05:48:19;98475.16;;;2.36;72.05
28510;BME280;15723;55.684;37.928;2022-10-31T05:51:03;98484.81;;;2.88;69.01
28510;BME280;15723;55.684;37.928;2022-10-31T05:53:29;98482.47;;;2.66;69.64
28510;BME280;15723;55.684;37.928;2022-10-31T05:55:55;98484.63;;;2.75;68.98
28510;BME280;15723;55.684;37.928;2022-10-31T05:58:21;98491.22;;;3.01;68.98
28510;BME280;15723;55.684;37.928;2022-10-31T06:00:53;98504.34;;;2.90;67.36
28510;BME280;15723;55.684;37.928;2022-10-31T06:03:19;98501.84;;;3.34;68.34
28510;BME280;15723;55.684;37.928;2022-10-31T06:05:48;98511.19;;;2.95;68.51
28510;BME280;15723;55.684;37.928;2022-10-31T06:08:14;98512.41;;;3.05;67.92
28510;BME280;15723;55.684;37.928;2022-10-31T06:10:42;98523.84;;;2.60;68.20
28510;BME280;15723;55.684;37.928;2022-10-31T06:13:08;98528.91;;;2.49;68.58
28510;BME280;15723;55.684;37.928;2022-10-31T06:15:42;98532.53;;;2.81;68.45
28510;BME280;15723;55.684;37.928;2022-10-31T06:18:08;98546.75;;;3.30;66.65
28510;BME280;15723;55.684;37.928;2022-10-31T06:20:46;98543.63;;;3.06;68.03
28510;BME280;15723;55.684;37.928;2022-10-31T06:23:12;98543.22;;;3.45;66.46
28510;BME280;15723;55.684;37.928;2022-10-31T06:25:40;98556.88;;;3.09;67.62
28510;BME280;15723;55.684;37.928;2022-10-31T06:28:07;98564.31;;;3.04;67.55
28510;BME280;15723;55.684;37.928;2022-10-31T06:30:56;98571.91;;;3.28;67.97
28510;BME280;15723;55.684;37.928;2022-10-31T06:33:22;98576.06;;;3.18;68.09
28510;BME280;15723;55.684;37.928;2022-10-31T06:36:00;98581.88;;;2.77;69.12
28510;BME280;15723;55.684;37.928;2022-10-31T06:38:27;98585.09;;;2.83;68.51
28510;BME280;15723;55.684;37.928;2022-10-31T06:40:54;98602.69;;;2.72;69.80
28510;BME280;15723;55.684;37.928;2022-10-31T06:43:22;98604.91;;;3.45;68.09
28510;BME280;15723;55.684;37.928;2022-10-31T06:45:50;98617.06;;;3.04;68.68
28510;BME280;15723;55.684;37.928;2022-10-31T06:48:21;98616.13;;;2.88;69.92
28510;BME280;15723;55.684;37.928;2022-10-31T06:51:16;98624.34;;;2.85;70.36
28510;BME280;15723;55.684;37.928;2022-10-31T06:53:45;98619.03;;;3.00;70.11
28510;BME280;15723;55.684;37.928;2022-10-31T06:56:12;98621.59;;;3.51;69.00
28510;BME280;15723;55.684;37.928;2022-10-31T06:58:46;98632.50;;;3.63;68.64
28510;BME280;15723;55.684;37.928;2022-10-31T07:01:13;98633.47;;;3.62;68.45
28510;BME280;15723;55.684;37.928;2022-10-31T07:03:39;98645.50;;;3.06;70.67
28510;BME280;15723;55.684;37.928;2022-10-31T07:06:05;98640.22;;;3.54;70.08
28510;BME280;15723;55.684;37.928;2022-10-31T07:08:32;98643.31;;;3.46;68.63
28510;BME280;15723;55.684;37.928;2022-10-31T07:10:58;98652.50;;;3.58;68.83
28510;BME280;15723;55.684;37.928;2022-10-31T07:13:25;98658.72;;;3.42;70.46
28510;BME280;15723;55.684;37.928;2022-10-31T07:16:00;98668.16;;;3.50;69.78
28510;BME280;15723;55.684;37.928;2022-10-31T07:18:27;98665.81;;;4.22;68.38
28510;BME280;15723;55.684;37.928;2022-10-31T07:20:53;98674.41;;;3.97;68.83
28510;BME280;15723;55.684;37.928;2022-10-31T07:23:20;98682.56;;;3.80;68.72
28510;BME280;15723;55.684;37.928;2022-10-31T07:25:58;98681.59;;;3.81;68.63
28510;BME280;15723;55.684;37.928;2022-10-31T07:28:30;98688.34;;;3.88;68.25
28510;BME280;15723;55.684;37.928;2022-10-31T07:30:58;98704.19;;;3.93;69.20
28510;BME280;15723;55.684;37.928;2022-10-31T07:33:24;98716.47;;;4.28;69.19
28510;BME280;15723;55.684;37.928;2022-10-31T07:36:12;98718.41;;;4.11;68.54
28510;BME280;15723;55.684;37.928;2022-10-31T07:38:41;98730.25;;;4.06;68.12
28510;BME280;15723;55.684;37.928;2022-10-31T07:41:07;98734.16;;;3.85;68.74
28510;BME280;15723;55.684;37.928;2022-10-31T07:43:38;98738.41;;;3.73;68.78
28510;BME280;15723;55.684;37.928;2022-10-31T07:46:16;98747.06;;;4.26;67.98
28510;BME280;15723;55.684;37.928;2022-10-31T07:48:58;98759.38;;;4.76;66.96
28510;BME280;15723;55.684;37.928;2022-10-31T07:51:41;98762.56;;;4.36;67.20
28510;BME280;15723;55.684;37.928;2022-10-31T07:54:27;98766.06;;;4.84;67.39
28510;BME280;15723;55.684;37.928;2022-10-31T07:56:53;98781.56;;;4.49;66.82
28510;BME280;15723;55.684;37.928;2022-10-31T07:59:19;98781.56;;;4.18;66.83
28510;BME280;15723;55.684;37.928;2022-10-31T08:01:47;98778.78;;;6.40;61.56
28510;BME280;15723;55.684;37.928;2022-10-31T08:04:31;98780.53;;;5.56;62.61
28510;BME280;15723;55.684;37.928;2022-10-31T08:07:16;98801.78;;;5.89;63.39
28510;BME280;15723;55.684;37.928;2022-10-31T08:09:49;98795.41;;;5.47;62.63
28510;BME280;15723;55.684;37.928;2022-10-31T08:12:20;98796.31;;;5.18;63.18
28510;BME280;15723;55.684;37.928;2022-10-31T08:14:46;98816.91;;;4.73;64.28
28510;BME280;15723;55.684;37.928;2022-10-31T08:17:14;98816.16;;;5.01;62.74
28510;BME280;15723;55.684;37.928;2022-10-31T08:19:48;98817.44;;;5.10;63.62
28510;BME280;15723;55.684;37.928;2022-10-31T08:22:15;98821.50;;;4.55;63.27
28510;BME280;15723;55.684;37.928;2022-10-31T08:24:41;98834.66;;;4.91;64.28
28510;BME280;15723;55.684;37.928;2022-10-31T08:27:07;98823.50;;;4.83;63.59
28510;BME280;15723;55.684;37.928;2022-10-31T08:29:33;98831.63;;;4.82;63.11
28510;BME280;15723;55.684;37.928;2022-10-31T08:32:00;98841.19;;;4.56;64.44
28510;BME280;15723;55.684;37.928;2022-10-31T08:34:44;98844.56;;;4.75;62.80
28510;BME280;15723;55.684;37.928;2022-10-31T08:37:29;98834.75;;;5.20;62.52
28510;BME280;15723;55.684;37.928;2022-10-31T08:39:55;98851.81;;;5.34;60.88
28510;BME280;15723;55.684;37.928;2022-10-31T08:42:21;98851.44;;;5.11;61.06
28510;BME280;15723;55.684;37.928;2022-10-31T08:44:47;98855.41;;;5.49;61.23
28510;BME280;15723;55.684;37.928;2022-10-31T08:47:13;98866.50;;;6.03;61.05
28510;BME280;15723;55.684;37.928;2022-10-31T08:49:39;98868.47;;;5.41;60.44
28510;BME280;15723;55.684;37.928;2022-10-31T08:52:05;98879.78;;;5.76;61.12
28510;BME280;15723;55.684;37.928;2022-10-31T08:54:36;98890.25;;;4.91;64.03
28510;BME280;15723;55.684;37.928;2022-10-31T08:57:21;98892.09;;;4.90;66.99
28510;BME280;15723;55.684;37.928;2022-10-31T08:59:47;98892.25;;;4.71;67.10
28510;BME280;15723;55.684;37.928;2022-10-31T09:02:13;98888.31;;;5.09;65.47
28510;BME280;15723;55.684;37.928;2022-10-31T09:04:39;98882.84;;;5.26;64.52
28510;BME280;15723;55.684;37.928;2022-10-31T09:07:05;98902.19;;;5.17;64.69
28510;BME280;15723;55.684;37.928;2022-10-31T09:09:32;98892.84;;;5.08;64.18
28510;BME280;15723;55.684;37.928;2022-10-31T09:11:58;98904.56;;;4.91;64.75
28510;BME280;15723;55.684;37.928;2022-10-31T09:14:53;98908.81;;;4.80;65.41
28510;BME280;15723;55.684;37.928;2022-10-31T09:17:38;98914.03;;;4.51;67.05
28510;BME280;15723;55.684;37.928;2022-10-31T09:20:20;98914.91;;;4.83;65.65
28510;BME280;15723;55.684;37.928;2022-10-31T09:22:47;98914.56;;;4.89;65.48
28510;BME280;15723;55.684;37.928;2022-10-31T09:25:13;98918.88;;;4.92;63.47
28510;BME280;15723;55.684;37.928;2022-10-31T09:27:42;98915.41;;;5.06;63.20
28510;BME280;15723;55.684;37.928;2022-10-31T09:30:08;98932.72;;;5.31;62.72
28510;BME280;15723;55.684;37.928;2022-10-31T09:32:34;98940.28;;;4.13;67.13
28510;BME280;15723;55.684;37.928;2022-10-31T09:35:04;98950.72;;;4.02;66.99
28510;BME280;15723;55.684;37.928;2022-10-31T09:37:31;98947.31;;;4.16;66.37
28510;BME280;15723;55.684;37.928;2022-10-31T09:39:57;98945.84;;;4.75;65.39
28510;BME280;15723;55.684;37.928;2022-10-31T09:42:55;98935.88;;;5.24;62.87
28510;BME280;15723;55.684;37.928;2022-10-31T09:51:20;98978.13;;;4.42;65.16
28510;BME280;15723;55.684;37.928;2022-10-31T09:56:36;98977.19;;;4.10;62.53
28510;BME280;15723;55.684;37.928;2022-10-31T09:59:04;98974.97;;;4.51;63.55
28510;BME280;15723;55.684;37.928;2022-10-31T10:01:49;98990.50;;;4.61;62.09
28510;BME280;15723;55.684;37.928;2022-10-31T10:07:25;98991.94;;;4.84;61.57
28510;BME280;15723;55.684;37.928;2022-10-31T10:10:22;99013.19;;;4.89;61.02
28510;BME280;15723;55.684;37.928;2022-10-31T10:13:15;99026.47;;;4.42;61.13
28510;BME280;15723;55.684;37.928;2022-10-31T10:15:57;99034.88;;;4.53;61.88
28510;BME280;15723;55.684;37.928;2022-10-31T10:18:41;99040.00;;;4.40;61.83
28510;BME280;15723;55.684;37.928;2022-10-31T10:26:41;99045.09;;;4.29;63.42
28510;BME280;15723;55.684;37.928;2022-10-31T10:31:58;99051.94;;;4.34;61.54
28510;BME280;15723;55.684;37.928;2022-10-31T10:34:41;99053.53;;;4.38;61.74
28510;BME280;15723;55.684;37.928;2022-10-31T10:39:56;99057.94;;;5.06;60.55
28510;BME280;15723;55.684;37.928;2022-10-31T10:42:26;99050.16;;;5.17;60.64
28510;BME280;15723;55.684;37.928;2022-10-31T10:45:17;99054.38;;;5.05;60.14
28510;BME280;15723;55.684;37.928;2022-10-31T10:48:14;99059.34;;;5.13;59.91
28510;BME280;15723;55.684;37.928;2022-10-31T10:50:49;99052.94;;;5.47;60.60
28510;BME280;15723;55.684;37.928;2022-10-31T10:56:44;99060.31;;;5.43;59.65
28510;BME280;15723;55.684;37.928;2022-10-31T10:59:16;99052.41;;;5.09;61.52
28510;BME280;15723;55.684;37.928;2022-10-31T11:01:44;99047.13;;;5.23;62.84
28510;BME280;15723;55.684;37.928;2022-10-31T11:04:28;99043.91;;;5.32;62.31
28510;BME280;15723;55.684;37.928;2022-10-31T11:07:02;99057.03;;;5.38;61.47
28510;BME280;15723;55.684;37.928;2022-10-31T11:09:28;99059.88;;;5.35;61.53
28510;BME280;15723;55.684;37.928;2022-10-31T11:11:55;99043.81;;;5.18;62.13
28510;BME280;15723;55.684;37.928;2022-10-31T11:14:23;99061.69;;;4.70;62.93
28510;BME280;15723;55.684;37.928;2022-10-31T11:17:07;99046.06;;;5.10;61.91
28510;BME280;15723;55.684;37.928;2022-10-31T11:19:34;99057.44;;;4.99;62.45
28510;BME280;15723;55.684;37.928;2022-10-31T11:22:27;99054.78;;;4.82;61.91
28510;BME280;15723;55.684;37.928;2022-10-31T11:24:53;99062.56;;;4.70;62.17
28510;BME280;15723;55.684;37.928;2022-10-31T11:27:24;99063.09;;;4.77;62.33
28510;BME280;15723;55.684;37.928;2022-10-31T11:29:51;99077.34;;;5.44;61.04
28510;BME280;15723;55.684;37.928;2022-10-31T11:32:24;99065.53;;;5.30;61.21
28510;BME280;15723;55.684;37.928;2022-10-31T11:34:58;99065.84;;;5.09;61.11
28510;BME280;15723;55.684;37.928;2022-10-31T11:37:35;99057.81;;;5.40;61.86
28510;BME280;15723;55.684;37.928;2022-10-31T11:40:15;99059.09;;;5.64;60.37
28510;BME280;15723;55.684;37.928;2022-10-31T11:42:42;99056.00;;;5.25;61.53
28510;BME280;15723;55.684;37.928;2022-10-31T11:45:31;99061.97;;;4.81;61.65
28510;BME280;15723;55.684;37.928;2022-10-31T11:47:58;99063.72;;;4.32;63.08
28510;BME280;15723;55.684;37.928;2022-10-31T11:50:47;99080.78;;;3.96;63.88
28510;BME280;15723;55.684;37.928;2022-10-31T11:53:21;99077.84;;;3.84;64.52
28510;BME280;15723;55.684;37.928;2022-10-31T11:56:15;99085.78;;;3.68;64.84
28510;BME280;15723;55.684;37.928;2022-10-31T11:58:42;99097.44;;;3.86;64.78
28510;BME280;15723;55.684;37.928;2022-10-31T12:01:27;99100.75;;;3.91;65.02
28510;BME280;15723;55.684;37.928;2022-10-31T12:06:32;99100.53;;;3.59;65.77
28510;BME280;15723;55.684;37.928;2022-10-31T12:08:59;99101.09;;;3.66;65.74
28510;BME280;15723;55.684;37.928;2022-10-31T12:11:43;99096.31;;;3.72;65.79
28510;BME280;15723;55.684;37.928;2022-10-31T12:17:18;99126.16;;;3.48;67.02
28510;BME280;15723;55.684;37.928;2022-10-31T12:26:24;99114.19;;;3.55;67.49
28510;BME280;15723;55.684;37.928;2022-10-31T12:29:18;99112.13;;;3.60;67.34
28510;BME280;15723;55.684;37.928;2022-10-31T12:32:15;99109.22;;;3.64;68.20
28510;BME280;15723;55.684;37.928;2022-10-31T12:35:03;99119.69;;;3.33;69.57
28510;BME280;15723;55.684;37.928;2022-10-31T12:37:57;99123.03;;;3.57;69.88
28510;BME280;15723;55.684;37.928;2022-10-31T12:46:37;99114.13;;;3.19;72.75
28510;BME280;15723;55.684;37.928;2022-10-31T12:52:03;99117.94;;;3.32;72.64
28510;BME280;15723;55.684;37.928;2022-10-31T12:57:31;99129.47;;;3.15;74.27
28510;BME280;15723;55.684;37.928;2022-10-31T13:00:04;99123.25;;;3.52;73.27
28510;BME280;15723;55.684;37.928;2022-10-31T13:02:43;99129.28;;;3.38;73.54
28510;BME280;15723;55.684;37.928;2022-10-31T13:07:57;99128.91;;;3.46;73.04
28510;BME280;15723;55.684;37.928;2022-10-31T13:10:32;99137.97;;;3.43;72.98
28510;BME280;15723;55.684;37.928;2022-10-31T13:13:06;99140.28;;;3.51;72.70
28510;BME280;15723;55.684;37.928;2022-10-31T13:15:35;99149.72;;;3.41;72.92
28510;BME280;15723;55.684;37.928;2022-10-31T13:18:12;99146.22;;;3.58;72.00
28510;BME280;15723;55.684;37.928;2022-10-31T13:20:44;99136.31;;;3.41;71.96
28510;BME280;15723;55.684;37.928;2022-10-31T13:23:29;99145.16;;;3.43;72.69
28510;BME280;15723;55.684;37.928;2022-10-31T13:25:57;99147.75;;;3.63;71.44
28510;BME280;15723;55.684;37.928;2022-10-31T13:28:45;99165.53;;;3.47;71.44
28510;BME280;15723;55.684;37.928;2022-10-31T13:31:17;99162.41;;;3.37;71.97
28510;BME280;15723;55.684;37.928;2022-10-31T13:33:51;99165.69;;;3.44;71.49
28510;BME280;15723;55.684;37.928;2022-10-31T13:36:28;99157.69;;;3.42;71.43
28510;BME280;15723;55.684;37.928;2022-10-31T13:41:48;99168.63;;;3.57;70.95
28510;BME280;15723;55.684;37.928;2022-10-31T13:44:23;99171.31;;;3.57;71.18
28510;BME280;15723;55.684;37.928;2022-10-31T13:46:51;99176.25;;;3.47;71.07
28510;BME280;15723;55.684;37.928;2022-10-31T13:54:39;99178.66;;;3.53;71.10
28510;BME280;15723;55.684;37.928;2022-10-31T13:57:21;99199.31;;;3.51;71.83
28510;BME280;15723;55.684;37.928;2022-10-31T13:59:56;99197.44;;;3.53;71.60
28510;BME280;15723;55.684;37.928;2022-10-31T14:02:29;99195.41;;;3.39;72.11
28510;BME280;15723;55.684;37.928;2022-10-31T14:05:00;99210.63;;;3.39;72.18
28510;BME280;15723;55.684;37.928;2022-10-31T14:07:30;99203.72;;;3.33;72.49
28510;BME280;15723;55.684;37.928;2022-10-31T14:10:32;99204.53;;;3.35;72.33
28510;BME280;15723;55.684;37.928;2022-10-31T14:13:15;99209.34;;;3.48;72.09
28510;BME280;15723;55.684;37.928;2022-10-31T14:15:59;99212.53;;;3.37;71.46
28510;BME280;15723;55.684;37.928;2022-10-31T14:18:35;99215.84;;;3.42;71.64
28510;BME280;15723;55.684;37.928;2022-10-31T14:23:41;99223.03;;;3.41;71.54
28510;BME280;15723;55.684;37.928;2022-10-31T14:29:32;99234.84;;;3.37;71.66
28510;BME280;15723;55.684;37.928;2022-10-31T14:35:02;99226.16;;;3.51;71.78
28510;BME280;15723;55.684;37.928;2022-10-31T14:40:35;99242.13;;;3.34;71.74
28510;BME280;15723;55.684;37.928;2022-10-31T14:49:26;99255.75;;;3.29;72.40
28510;BME280;15723;55.684;37.928;2022-10-31T14:51:57;99255.50;;;3.35;72.19
28510;BME280;15723;55.684;37.928;2022-10-31T14:54:30;99260.81;;;3.37;72.05
28510;BME280;15723;55.684;37.928;2022-10-31T14:57:05;99270.97;;;3.29;71.87
28510;BME280;15723;55.684;37.928;2022-10-31T14:59:36;99257.56;;;3.29;71.69
28510;BME280;15723;55.684;37.928;2022-10-31T15:02:26;99273.13;;;3.41;71.70
28510;BME280;15723;55.684;37.928;2022-10-31T15:04:56;99269.25;;;3.28;71.65
28510;BME280;15723;55.684;37.928;2022-10-31T15:07:26;99271.47;;;3.38;71.61
28510;BME280;15723;55.684;37.928;2022-10-31T15:10:44;99270.81;;;3.52;71.21
28510;BME280;15723;55.684;37.928;2022-10-31T15:12:46;99283.94;;;3.39;71.43
28510;BME280;15723;55.684;37.928;2022-10-31T15:15:24;99291.91;;;3.41;71.69
28510;BME280;15723;55.684;37.928;2022-10-31T15:17:57;99286.00;;;3.33;71.56
28510;BME280;15723;55.684;37.928;2022-10-31T15:20:36;99301.78;;;3.40;71.01
28510;BME280;15723;55.684;37.928;2022-10-31T15:23:04;99311.75;;;3.57;71.35